createdAt,value
2022-10-26T00:04:36.544Z,99340.44
2022-10-26T00:09:39.622Z,99340.63
2022-10-26T00:14:42.714Z,99342.98
2022-10-26T00:19:45.619Z,99351.19
2022-10-26T00:24:48.473Z,99358.75
2022-10-26T00:29:51.537Z,99361.73
2022-10-26T00:34:54.420Z,99359.50
2022-10-26T00:39:57.288Z,99358.16
2022-10-26T00:45:05.113Z,99352.77
2022-10-26T00:50:21.422Z,99355.05
2022-10-26T00:55:29.445Z,99360.98
2022-10-26T01:00:32.966Z,99351.77
2022-10-26T01:05:39.401Z,99360.08
2022-10-26T01:10:43.174Z,99364.66
2022-10-26T01:16:02.504Z,99365.83
2022-10-26T01:21:08.147Z,99369.20
2022-10-26T01:26:21.828Z,99366.27
2022-10-26T01:31:42.117Z,99362.02
2022-10-26T01:36:53.210Z,99358.90
2022-10-26T01:42:01.139Z,99358.33
2022-10-26T01:47:04.697Z,99361.60
2022-10-26T01:52:10.458Z,99359.25
2022-10-26T01:57:15.008Z,99361.09
2022-10-26T02:02:24.091Z,99359.86
2022-10-26T02:07:51.731Z,99362.59
2022-10-26T02:13:10.703Z,99353.27
2022-10-26T02:18:32.736Z,99352.41
2022-10-26T02:23:39.550Z,99355.45
2022-10-26T02:28:47.019Z,99358.42
2022-10-26T02:33:53.283Z,99356.34
2022-10-26T02:38:57.985Z,99356.33
2022-10-26T02:44:04.969Z,99360.28
2022-10-26T02:49:08.051Z,99359.88
2022-10-26T02:54:20.028Z,99363.72
2022-10-26T02:59:26.334Z,99363.66
2022-10-26T03:04:33.795Z,99366.73
2022-10-26T03:09:37.310Z,99373.88
2022-10-26T03:14:41.430Z,99379.21
2022-10-26T03:19:44.484Z,99383.46
2022-10-26T03:24:47.435Z,99379.38
2022-10-26T03:29:50.390Z,99385.73
2022-10-26T03:34:53.401Z,99387.19
2022-10-26T03:39:56.311Z,99395.13
2022-10-26T03:44:59.205Z,99400.37
2022-10-26T03:50:02.105Z,99397.73
2022-10-26T03:55:05.862Z,99397.73
2022-10-26T04:00:10.463Z,99396.25
2022-10-26T04:05:17.635Z,99396.58
2022-10-26T04:10:21.038Z,99393.09
2022-10-26T04:15:24.454Z,99393.12
2022-10-26T04:20:28.874Z,99395.63
2022-10-26T04:25:33.679Z,99393.61
2022-10-26T04:30:37.436Z,99394.11
2022-10-26T04:35:40.627Z,99394.93
2022-10-26T04:40:43.551Z,99387.73
2022-10-26T04:45:46.656Z,99391.58
2022-10-26T04:50:52.180Z,99393.33
2022-10-26T04:55:59.816Z,99396.52
2022-10-26T05:01:03.321Z,99396.50
2022-10-26T05:06:06.697Z,99396.86
2022-10-26T05:11:09.727Z,99404.12
2022-10-26T05:16:13.199Z,99409.09
2022-10-26T05:21:19.838Z,99412.41
2022-10-26T05:26:23.933Z,99421.02
2022-10-26T05:31:27.213Z,99426.55
2022-10-26T05:36:30.107Z,99430.29
2022-10-26T05:41:33.330Z,99432.77
2022-10-26T05:46:36.311Z,99437.60
2022-10-26T05:51:39.779Z,99436.25
2022-10-26T05:56:43.047Z,99435.46
2022-10-26T06:02:07.422Z,99441.86
2022-10-26T06:07:28.818Z,99451.14
2022-10-26T06:12:31.989Z,99456.05
2022-10-26T06:18:00.016Z,99460.73
2022-10-26T06:23:29.094Z,99460.56
2022-10-26T06:28:58.004Z,99466.16
2022-10-26T06:34:01.072Z,99471.54
2022-10-26T06:39:11.555Z,99471.95
2022-10-26T06:44:23.004Z,99477.23
2022-10-26T06:49:34.886Z,99479.77
2022-10-26T06:54:54.740Z,99481.98
2022-10-26T07:00:22.530Z,99485.48
2022-10-26T07:05:25.761Z,99489.70
2022-10-26T07:10:28.733Z,99489.30
2022-10-26T07:15:31.672Z,99488.55
2022-10-26T07:20:39.786Z,99494.15
2022-10-26T07:25:43.065Z,99494.84
2022-10-26T07:30:46.088Z,99498.93
2022-10-26T07:35:49.047Z,99502.05
2022-10-26T07:40:54.330Z,99500.88
2022-10-26T07:45:57.456Z,99507.70
2022-10-26T07:51:03.163Z,99503.66
2022-10-26T07:56:07.146Z,99504.59
2022-10-26T08:01:17.769Z,99501.20
2022-10-26T08:06:22.210Z,99504.84
2022-10-26T08:11:25.093Z,99499.04
2022-10-26T08:16:28.190Z,99495.92
2022-10-26T08:21:46.408Z,99493.14
2022-10-26T08:26:49.616Z,99496.88
2022-10-26T08:31:52.568Z,99499.95
2022-10-26T08:36:55.480Z,99492.94
2022-10-26T08:42:26.154Z,99495.36
2022-10-26T08:47:34.565Z,99491.88
2022-10-26T08:52:54.069Z,99490.29
2022-10-26T08:57:58.014Z,99489.86
2022-10-26T09:03:00.923Z,99493.73
2022-10-26T09:08:36.884Z,99491.45
2022-10-26T09:13:39.743Z,99485.31
2022-10-26T09:19:02.888Z,99488.14
2022-10-26T09:24:16.391Z,99482.67
2022-10-26T09:29:20.953Z,99483.84
2022-10-26T09:34:29.887Z,99490.36
2022-10-26T09:39:46.649Z,99491.26
2022-10-26T09:45:00.144Z,99500.29
2022-10-26T09:50:18.436Z,99493.98
2022-10-26T09:55:23.083Z,99490.42
2022-10-26T10:00:28.917Z,99488.38
2022-10-26T10:11:02.178Z,99488.19
2022-10-26T10:16:24.061Z,99483.13
2022-10-26T10:21:39.850Z,99484.86
2022-10-26T10:27:12.388Z,99488.62
2022-10-26T10:32:24.636Z,99488.64
2022-10-26T10:37:35.176Z,99483.65
2022-10-26T10:42:41.646Z,99483.30
2022-10-26T10:48:13.526Z,99480.94
2022-10-26T10:53:29.396Z,99482.13
2022-10-26T10:58:49.841Z,99487.92
2022-10-26T11:04:28.186Z,99479.84
2022-10-26T11:09:36.736Z,99475.09
2022-10-26T11:14:46.318Z,99475.44
2022-10-26T11:19:57.767Z,99473.91
2022-10-26T11:25:12.065Z,99474.61
2022-10-26T11:30:20.100Z,99473.33
2022-10-26T11:35:56.685Z,99477.44
2022-10-26T11:41:33.562Z,99470.76
2022-10-26T11:46:43.505Z,99469.27
2022-10-26T11:52:14.778Z,99462.61
2022-10-26T11:57:18.778Z,99466.28
2022-10-26T12:02:24.566Z,99466.32
2022-10-26T12:07:31.448Z,99473.69
2022-10-26T12:12:47.318Z,99469.59
2022-10-26T12:17:56.496Z,99472.96
2022-10-26T12:22:59.711Z,99473.05
2022-10-26T12:28:02.995Z,99468.08
2022-10-26T12:33:29.379Z,99464.46
2022-10-26T12:38:33.933Z,99462.81
2022-10-26T12:43:37.006Z,99458.70
2022-10-26T12:48:43.057Z,99458.65
2022-10-26T12:54:18.379Z,99459.28
2022-10-26T12:59:30.417Z,99460.98
2022-10-26T13:04:57.406Z,99464.56
2022-10-26T13:10:04.955Z,99464.70
2022-10-26T13:15:39.820Z,99465.50
2022-10-26T13:20:54.798Z,99466.56
2022-10-26T13:26:03.571Z,99466.48
2022-10-26T13:31:12.027Z,99462.61
2022-10-26T13:36:23.569Z,99464.79
2022-10-26T13:41:45.364Z,99472.84
2022-10-26T13:46:53.502Z,99470.83
2022-10-26T13:52:02.352Z,99470.77
2022-10-26T13:57:08.001Z,99469.18
2022-10-26T14:02:25.466Z,99471.77
2022-10-26T14:07:39.677Z,99471.29
2022-10-26T14:12:42.799Z,99472.69
2022-10-26T14:17:51.044Z,99472.16
2022-10-26T14:22:54.304Z,99471.05
2022-10-26T14:27:57.489Z,99473.95
2022-10-26T14:33:00.486Z,99475.52
2022-10-26T14:38:15.068Z,99473.30
2022-10-26T14:43:22.972Z,99478.37
2022-10-26T14:48:32.372Z,99479.94
2022-10-26T14:53:41.054Z,99486.77
2022-10-26T14:58:44.610Z,99490.60
2022-10-26T15:03:52.874Z,99492.01
2022-10-26T15:08:58.340Z,99498.94
2022-10-26T15:14:01.642Z,99504.34
2022-10-26T15:19:10.560Z,99509.46
2022-10-26T15:24:38.787Z,99516.00
2022-10-26T15:29:44.629Z,99518.52
2022-10-26T15:35:05.626Z,99521.48
2022-10-26T15:40:09.008Z,99529.22
2022-10-26T15:45:20.937Z,99534.95
2022-10-26T15:50:27.403Z,99536.39
2022-10-26T15:55:30.950Z,99543.09
2022-10-26T16:00:34.003Z,99543.75
2022-10-26T16:05:37.019Z,99548.66
2022-10-26T16:10:40.123Z,99552.31
2022-10-26T16:15:43.719Z,99556.75
2022-10-26T16:20:46.732Z,99561.11
2022-10-26T16:25:49.624Z,99558.05
2022-10-26T16:30:59.247Z,99560.98
2022-10-26T16:36:03.875Z,99562.52
2022-10-26T16:41:12.145Z,99568.74
2022-10-26T16:46:19.992Z,99568.64
2022-10-26T16:51:28.613Z,99579.30
2022-10-26T16:56:31.805Z,99578.41
2022-10-26T17:01:36.053Z,99580.67
2022-10-26T17:06:39.060Z,99585.84
2022-10-26T17:11:42.126Z,99596.70
2022-10-26T17:16:45.124Z,99600.67
2022-10-26T17:21:48.243Z,99603.15
2022-10-26T17:26:51.173Z,99611.06
2022-10-26T17:31:54.276Z,99611.70
2022-10-26T17:36:57.944Z,99620.54
2022-10-26T17:42:00.888Z,99624.52
2022-10-26T17:47:04.010Z,99630.54
2022-10-26T17:52:07.010Z,99636.06
2022-10-26T17:57:09.997Z,99641.30
2022-10-26T18:02:12.992Z,99642.45
2022-10-26T18:07:16.038Z,99647.92
2022-10-26T18:12:18.986Z,99647.75
2022-10-26T18:17:21.856Z,99649.70
2022-10-26T18:22:25.155Z,99650.73
2022-10-26T18:27:28.164Z,99656.42
2022-10-26T18:32:31.239Z,99661.08
2022-10-26T18:37:34.246Z,99665.29
2022-10-26T18:42:37.298Z,99670.70
2022-10-26T18:47:41.235Z,99675.02
2022-10-26T18:52:45.310Z,99676.33
2022-10-26T18:57:48.284Z,99681.16
2022-10-26T19:02:52.490Z,99686.61
2022-10-26T19:07:55.711Z,99690.79
2022-10-26T19:12:58.679Z,99696.48
2022-10-26T19:18:03.026Z,99704.09
2022-10-26T19:23:06.205Z,99709.55
2022-10-26T19:28:09.152Z,99717.73
2022-10-26T19:33:12.202Z,99722.54
2022-10-26T19:38:15.029Z,99728.21
2022-10-26T19:43:17.967Z,99731.25
2022-10-26T19:48:21.216Z,99730.89
2022-10-26T19:53:24.528Z,99736.97
2022-10-26T19:58:30.201Z,99743.50
2022-10-26T20:03:34.257Z,99748.11
2022-10-26T20:08:37.810Z,99746.78
2022-10-26T20:13:40.957Z,99752.66
2022-10-26T20:18:47.754Z,99755.16
2022-10-26T20:23:52.163Z,99757.31
2022-10-26T20:28:55.113Z,99761.96
2022-10-26T20:33:58.179Z,99769.80
2022-10-26T20:39:01.758Z,99770.46
2022-10-26T20:44:05.106Z,99776.04
2022-10-26T20:49:09.502Z,99779.45
2022-10-26T20:54:19.376Z,99783.05
2022-10-26T20:59:26.013Z,99785.65
2022-10-26T21:04:28.929Z,99792.69
2022-10-26T21:09:34.222Z,99798.13
2022-10-26T21:14:41.077Z,99801.05
2022-10-26T21:19:44.178Z,99798.48
2022-10-26T21:24:47.491Z,99799.25
2022-10-26T21:29:50.389Z,99802.60
2022-10-26T21:34:55.707Z,99806.04
2022-10-26T21:39:58.619Z,99803.46
2022-10-26T21:45:01.664Z,99809.95
2022-10-26T21:50:05.096Z,99814.75
2022-10-26T21:55:08.379Z,99814.91
2022-10-26T22:00:11.985Z,99816.94
2022-10-26T22:05:16.112Z,99822.70
2022-10-26T22:10:18.970Z,99823.73
2022-10-26T22:15:22.127Z,99826.27
2022-10-26T22:20:25.451Z,99828.67
2022-10-26T22:25:28.422Z,99828.55
2022-10-26T22:30:32.461Z,99830.86
2022-10-26T22:35:35.618Z,99834.86
2022-10-26T22:40:39.439Z,99834.03
2022-10-26T22:45:42.894Z,99834.39
2022-10-26T22:50:47.221Z,99834.60
2022-10-26T22:55:51.904Z,99836.78
2022-10-26T23:01:14.372Z,99840.90
2022-10-26T23:06:20.905Z,99843.14
2022-10-26T23:11:27.911Z,99841.92
2022-10-26T23:16:32.998Z,99837.83
2022-10-26T23:21:37.386Z,99838.94
2022-10-26T23:26:40.823Z,99846.48
2022-10-26T23:31:44.367Z,99846.14
2022-10-26T23:36:48.481Z,99846.30
2022-10-26T23:41:53.625Z,99851.91
2022-10-26T23:46:56.731Z,99850.16
2022-10-26T23:52:00.476Z,99857.16
2022-10-26T23:57:04.863Z,99857.78
